Terminal Aerodrome Forecast
Issued by NWS Blacksburg, VA

Home | Current Version | Previous Version | Text Only | Print | Product List | Glossary On
Versions: 1 2 3 4 5 6 7 8 9 10 11 12 13 14 15 16 17 18 19 20 21 22 23 24 25 26 27 28 29 30 31
000
FTUS41 KRNK 031737
TAFLYH
TAF
KLYH 031737Z 0318/0418 27006KT P6SM VCTS SCT023CB OVC050
     FM040000 29004KT P6SM BKN070
     FM041200 30007KT P6SM OVC070=

USA.gov is the U.S. government's official web portal to all federal, state and local government web resources and services.